Race Results for
Campmor Hudson to Highlands Regional MTB Finals
Ringwood, NJ
(Event Information)
View By:
Cross Country on 10/08/2006

Note: Ranking points are NOT upgrade points. An explanation of ranking points can be found here.


Men - SP - Junior - 10-14

 Place Points NameCity, StateTime USAC #BibTeam
1 Cam Mancuso   2:22:50  201 

Men - SP - Junior - 15-18

 Place Points NameCity, StateTime USAC #BibTeam
1 Erik Kristiansen   Sussex, NJ1:41:18 242906  213 
2 Matt Watters   1:48:48  216 
3 Gregory Battista   Toms River, NJ1:56:07 228090  214 
4 Lukas Grob   Sherman, CT1:56:08 230384  218 
5 Ryan Sarka   Aspen, CO1:59:10 240495  210 
6 Michael Fischer   Ringwood, NJ2:11:07 229163  217 
7 Andy Underwood   Sparta, NJ2:13:34 228565  219 
DNF Jeremy Marton     212 

Men - SP - Junior - 17-18

 Place Points NameCity, StateTime USAC #BibTeam
DNF Sunil Ganu   DNF  200 

Men - SP - Senior - 19-29

 Place Points NameCity, StateTime USAC #BibTeam
1 Ryan Heerschap   1:41:32  220 
2 Gillray Brown   Columbia, MD1:43:31 86272  225 
3 Rob Witle   1:50:01  224 
4 Aaron Nathan   1:51:46  227 
5 Neil Sudol   Milford, PA1:55:34 112607  232 
6 Jeff Sowa   Clifton, NJ1:55:40 242104  226 
7 Mike McGinlay   Staten Island, NY1:56:10 225775  231 
8 Chris Price   2:00:15  222 
9 Brett Spurrier   2:08:06  230 
10 Jon Furpes   2:09:50  228 
11 Joaquin Canizales   2:25:34  221 
12 Tom Pannorfi   2:50:24  229 
DNF Shawn Hall   DNF  223 
DNF Alberto Solaro   DNF  233 

Men - SP - Master - 30-39

 Place Points NameCity, StateTime USAC #BibTeam
1 Alexander Pearson   1:37:00  263 
2 Shawn Teske   1:39:00  275 
3 Danny Habig   1:44:00  268 
4 Joe Yanazzo   1:44:10  251 
5 Rob Young   1:44:15  250 
6 Wayne Tice   New Windsor, NY1:45:00 226401  254 
7 TJ DeSantis   1:46:34  257 
8 William Romollino   Allendale, NJ1:48:44 236221  271 
9 Jim Brockway   Hopewell Junction, NY1:49:40 223607  272 
10 Michael Rave   Montgomery, NY1:49:41 222435  266 
11 Alex Salazar   Ringwood, NJ1:49:50 224520  258 
12 Chris Stine   1:50:20  265 
13 Ed Velasquez   1:51:01  252 
14 Walter Reynolds   Montgomery, NY1:51:18 110123  267 
15 Dan Habig   1:53:20  268 
16 Tod Christianson   Fair Lawn, NJ1:53:40 145342  259 
17 James Milito   Basking Ridge, NJ1:56:20 132854  273 
18 Mark Daly   1:56:20  274 
19 Brian Mieczkowski   Goshen, NY1:58:09 223207  255 
20 Re Stricker   2:07:00  269 
21 Robert Dunn   Mahwah, NJ2:19:22 199355  256 
22 Ramon Hernandez   2:27:55  261 
23 Tom Walsh   2:37:29  262 
DNF Dan Chonng   DNF  260 
DNF Lyal Tressler   Gaithersburg, MDDNF 174880  253 
DNF Chris Rudzik   DNF  270 

Men - SP - Master - 40-49

 Place Points NameCity, StateTime USAC #BibTeam
1 Victor Jerez   1:40:42  363 
2 Joe Barros   1:40:46  352 
3 Jeff Coneys   Oakland, NJ1:41:32 211901  372 
4 Robert Swart   Middletown, NY1:43:12 139784  367 
5 Mark Salvagin   Middletown, NY1:44:18 225016  353 
6 Ron Gilbert   1:44:36  374 
7 Roger Billharz   Sleepy Hollow, NY1:51:22 199172  368 
8 Jeffrey Stickle   Sussex, NJ1:52:16 203382  355 
9 Brian Celardo   Fanwood, NJ1:53:09 187413  351 
10 Lon Vito   1:53:48  366 
11 Eric Hammarberg   1:54:06  370 
12 Bruce Driver   1:57:25  359 
13 Chris Garatti   2:00:08  357 
14 Dave Reilly   2:00:09  354 
15 Jeffrey O'Hara   Budd Lake, NJ2:01:06 208491  369 
16 Steve Kleiber   2:07:28  360 
17 Jong Lim   2:11:43  362 
18 Rey McCarthy   2:13:57  358 
19 Alberto Anderson   2:24:44  356 
20 Doug Loffredo   2:43:38  350 
DNF Brian Gristick   Budd Lake, NJDNF 191647  375 
DNF Robert Gover   Queensbury, NYDNF 175153  371 
DNF Ben Williams   Stony Point, NYDNF 38300  364 
DNF Dave Degange   DNF  361 
DNF Dennis Nathan   DNF  365 

Men - SP - Master - 50-99

 Place Points NameCity, StateTime USAC #BibTeam
1 Mark Blascut   1:57:57  451 
2 George Zubalsky   2:08:53  450 
3 Nick Nixon   2:09:58  452 
4 James Gambino   2:22:55  453 
5 Arty Westphal   2:38:38  264 

Men - SM

 Place Points NameCity, StateTime USAC #BibTeam
1 Edward Ceccolini   Pompton Lakes, NJ2:00:00 54209  
2 Andrew Alesio   Zieglerville, PA2:11:00 233011  
3 Dylan Alesio   Zieglerville, PA2:11:10 233553  10 
4 Thierry Blanchet   Castleton, NY2:12:00 190039  
5 Julian Hunter   Landing, NJ2:13:00 42710  
6 Brent Mellen   Thetford Center, VT2:13:10 119525  
7 Robert Campos   Nesconset, NY2:17:00 101149  
8 Tim Dougherty   Glenside, PA2:23:00 73274  
DNF Robert Kelley   Patterson, NYDNF 148571  

Men - Single Speed

 Place Points NameCity, StateTime USAC #BibTeam
1 Andrew Crooks   New York, NY2:25:30 103441  600 
2 Ed Burgess   Newburgh, NY2:39:37 5491  602 
3 David Lyons   2:42:59  604 
4 Andrew Craig   Phoenixville, PA2:44:18 170639  603 
DNF Tim Johnson   Denville, NJDNF 171796  601 
DNF Russell Cadogan   Plymouth, MNDNF 129574  605 

Men - EX - Junior - 12-18

 Place Points NameCity, StateTime USAC #BibTeam
1 Nicholas Bruno   Hackensack, NJ3:00:50 244321  150 

Men - EX - Senior - 19-29

 Place Points NameCity, StateTime USAC #BibTeam
1 Stephen Peterson   Swanzey, NH2:19:00 249242  26 
2 Thomas DiNunzio   Andover, NJ2:24:00 212722  23 
3 Jesse Epstein   Morristown, NJ2:36:00 77854  28 
4 Marc Hourican   Union City, NJ2:45:00 244294  20 
5 Brian Shernce   Flanders, NJ2:53:00 199588  24 
6 Geoffrey Lenat   Dover, NJ3:01:52 139224  29 
7 Nicholas White   Danville, CA3:03:39 197788  27 
DNF Joseph Azze   Sloatsburg, NYDNF 222315  21 
DNF Joseph Gratcofsky   Boulder, CODNF 244611  25 
DNF Matthew Majka   Andover, NJDNF 246771  22 

Men - EX - Master - 30-30

 Place Points NameCity, StateTime USAC #BibTeam
DNF Christian Baks   Poughkeepsie, NYDNF 223736  75 

Men - EX - Master - 30-39

 Place Points NameCity, StateTime USAC #BibTeam
1 Maurice Gamanho   Lebanon, NJ2:16:52 218359  73 
2 Greg Waggoner   New York, NY2:17:00 171792  79 
3 Chris LeDonne   Caldwell, NJ2:22:08 152242  72 
4 Patrick Walter   Philadelphia, PA2:22:58 132630  84 
5 Robert DiGirolamo   West Milford, NJ2:25:17 115053  82 
6 Brian Kelley   Pawling, NY2:27:20 133393  20 
7 Noah Meineke   Sparta, NJ2:30:27 209399  83 
8 Rolf Rimrott   Valley Forge, PA2:31:04 210926  78 
9 Gordon Davies   Vernon, NJ2:31:14 8727  85 
10 James Furman   Hopatcong, NJ2:41:01 139741  74 
11 Frank Doty   Westbrookville, NY2:44:28 161406  77 
12 Keith Licata   Andover, NJ2:46:06 196832  71 
13 Jeremy Swift   Woodstock, NY2:47:58 147166  70 
14 Steve Mancuso   2:50:43  76 
DNF Chris Fallon   DNF  81 

Men - EX - Master - 40-49

 Place Points NameCity, StateTime USAC #BibTeam
1 Ken Welch   Hopewell Jct, NY2:16:23 37650  139 
2 Scott Paine   Greenfield Center, NY2:25:52 229859  137 
3 John DeBitetto   Yorktown Heights, NY2:26:56 89638  138 
4 David Hunt   Whitehouse Station, NJ2:30:16 17144  135 
5 John Stenger   Philadelphia, PA2:31:14 140933  140 
6 Paul Wojciak   Poughkeepsie, NY2:31:17 230224  130 
7 Esteban Rodriguez   Woodside, NY2:34:07 153034  134 
8 Joseph Baldacci   Fair Lawn, NJ2:37:07 168962  131 
9 Christian Goldschrafe   Lakeville, MN2:44:35 129572  136 
DNF Robert Grant   Newfoundland, NJDNF 13909  133 
DNF Frank Wilkes   Greenwood Lake, NYDNF 249645  132 

Men - EX - Master - 50-99

 Place Points NameCity, StateTime USAC #BibTeam
1 Arthur White   Hohokus, NJ2:32:00 37936  162 
2 Mark Sullivan   Poughquag, NY2:45:00 96768  164 
3 David Chomowicz   New York, NY2:46:00 67842  160 
4 Warren Moe   New York, NY2:51:00 24676  163 
5 Thomas Stanowski   Greenwood Lake, NY2:52:00 212761  165 
6 Matthew Davies   Poughkeepsie, NY3:20:00 74221  161 

Men - BG - Junior - 10-14

 Place Points NameCity, StateTime USAC #BibTeam
1 Gunnar Bergey   55:26  501 
2 Max Mancuso   Greentown, PA56:10 236344  505 
3 Dillon Van Wart   West Milford, NJ59:00 248433  500 
4 Joaquin Jerez   1:10:25  504 
5 Havimilien Pibouin   1:12:44  503 
6 Kevin Acker   Highland Lakes, NJ1:15:27 250179  502 

Men - BG - Junior - 15-18

 Place Points NameCity, StateTime USAC #BibTeam
1 Zach Koop   39:13  522 
1 Zachary Koop   Ridgefield Park, NJ39:13 246254  522 
2 Marshall Paulson   44:31  524 
3 Ron Henion   Belleview, FL48:37 246602  523 
4 Tyler Conlon   49:11  526 
5 Dillon Plunkett   Maplewood, NJ50:55 242325  520 
6 Justin Murphy   55:00  521 

Men - BG - Senior - 19-29

 Place Points NameCity, StateTime USAC #BibTeam
1 Norbey Giraldo   42:40  548 Optional
2 Evan Mills   45:24  550 
3 William Weismantel   47:20  542 
4 Mike Kucharski   48:33  541 
5 Chris Fidler   48:59  540 
6 James Weitze   54:50  543 
7 Jeffrey Dodd   Allendale, NJ54:55 245274  544 
8 Ryan Atwood   1:17:16  547 
DNF Barry Mortz   DNF  545 
DNF Yanny Giraldo   DNF  549 
DNF Jesse White   DNF  546 

Men - BG - Master - 30-39

 Place Points NameCity, StateTime USAC #BibTeam
1 John Arias   Morganville, NJ45:02 83178  713 
2 Tshia JiLiong   45:25  709 
3 Greg Heller   45:26  717 
4 Dan Spreiregen   45:44  700 
5 Rogelio Ayala   Clifton, NJ46:20 244079  707 
6 Martin Kozera   47:34  710 
7 Dave Schneider   51:14  718 
8 Richard Pike   River Edge, NJ51:15 252766  701 
9 Bill Lindsay   53:21  711 
10 Craig Rosasco   53:28  716 
11 John MacDonald   Haskell, NJ54:14 253091  704 
12 Rodrigo Alanis   54:22  720 
13 Gem Mookherjea   54:28  702 
14 Sean O'Brien   54:43  708 
15 Johan Ned   54:59  719 
16 Carols Gomez   57:56  706 
17 Jean-Cedric Jollant   1:00:10  705 
18 Elcid Cabangan   1:02:40  714 
19 Pete McAndrews   1:07:15  703 
20 Rob Portvliet   1:23:24  721 
DNF Mike Sternesky   DNF  712 
DNF Sandro Correia   DNF  715 

Men - BG - Master - 40-49

 Place Points NameCity, StateTime USAC #BibTeam
1 JP Pibouin   46:42  747 
2 David Daniel   Stockholm, NJ47:18 248435  745 
3 Paul Kolb   49:13  743 
4 Tony Accusso   50:03  746 
5 Tim Egan   53:04  750 
6 Vladimir Popovic   54:02  744 
7 Craig Johnson   54:09  749 
8 Paul Williams   57:32  753 
9 Pat Brown   58:48  752 
10 Lee Curry   59:19  751 
11 Yoei Shargien   59:29  748 
12 Laurent Sauvant   1:06:13  741 
13 Justin Yang   1:12:55  740 
DNF Hank Kells   DNF  742 

Men - BG - Master - 50-99

 Place Points NameCity, StateTime USAC #BibTeam
1 Richard Zipper   53:49  775 
2 Roger Cucci   53:53  774 
3 Jeffrey Stern   West Milford, NJ59:20 223882  770 
4 Seth Glasser   1:04:12  776 
5 Mark Flanagan   1:06:54  772 
6 John Lim   1:15:19  773 
7 Keum Ho   1:17:16  771 

Women - SP - Senior - 12-34

 Place Points NameCity, StateTime USAC #BibTeam
1 Wendi Sebastian   Vernon, NJ2:17:00 230244  462 
2 Laura Winberry   Bend, OR2:23:16 244090  461 
DNF Jen Yanazzo   DNF  460 
DNF Kyra Kenwood   DNF  463 

Women - SP - Master - 35-99

 Place Points NameCity, StateTime USAC #BibTeam
1 Ellen Surruto   2:20:10  491 

Women - Single Speed

 Place Points NameCity, StateTime USAC #BibTeam
DNF Ellen White   Hohokus, NJDNF 97355  630 

Women - EX - Master - 12-34

 Place Points NameCity, StateTime USAC #BibTeam
DNF Lindsey Bishop   Boulder, CODNF 198013  170 
DNF Margaret Shirley   San Francisco, CADNF 165715  174 

Women - EX - Senior - 12-34

 Place Points NameCity, StateTime USAC #BibTeam
1 Jane Pearson   Pound Ridge, NY2:41:05 212760  172 
2 Bryna Nestor   Troy, NY2:44:00 209883  173 
3 Melissa Kern   Andover, NJ2:51:00 246791  171 

Women - EX - Master - 35-99

 Place Points NameCity, StateTime USAC #BibTeam
1 Valerie Geist   2:08:00  187 
2 Diana Hulboy   Philadelphia, PA2:19:00 196130  185 
3 Cosby Gibson   Richfield Springs, NY2:31:00 151352  186 

Women - BG - Senior - 19-34

 Place Points NameCity, StateTime USAC #BibTeam
1 Cynthia Bischoff   56:20  788 
2 Gerilynn Snede   1:01:10  789 
3 Fahara Mookherjea   1:03:43  785 
4 Lauren McEnteer   1:10:42  784 
5 Nicole Bakus   1:12:14  787 
6 Barb McAndrews   1:20:08  786 

Women - BG - Master - 35-99

 Place Points NameCity, StateTime USAC #BibTeam
1 Shasta Jensen   New York, NY51:06 248090  792 
2 Joan Dyer   51:39  490 
3 Karen Moretti   1:02:00  790 
4 Lynn Stickle   1:10:18  791 
5 Karen Crown   1:19:57  793 

Report missing or incorrect license numbers

Volkswagen
SpyOSMOSierra NevadaShimanoBonk BreakerUSACDFCUORE
UCI USA Cycling is the official governing body for all disciplines of competitive cycling in the United States. The 501c3, membership-based organization aims both to achieve sustained success in international cycling competition and to grow competitive cycling in America while delivering an exceptional customer experience.
View Children's Online Privacy Protection Policy
US Olympic Committee